SCSE/LSC METAR and TAF weather

Enter ICAO airport designator
Station Type Date Time Source
SCSE METAR 2022/06/29 00:00 UTC NOAA

SCSE 290000Z 21003KT CAVOK 12/07 Q1019


Station Type Date Time Source
SCSE Decoded METAR 2022/06/29 00:00 UTC NOAA

La Serena, Chile (SCSE) 29-54S 071-12W
Jun 28, 2022 - 08:00 PM EDT / 2022.06.29 0000 UTC
Wind: from the SSW (210 degrees) at 3 MPH (3 KT):0
Visibility: greater than 7 mile(s):0
Temperature: 53 F (12 C)
Dew Point: 44 F (7 C)
Relative Humidity: 71%
Pressure (altimeter): 30.09 in. Hg (1019 hPa)
ob: SCSE 290000Z 21003KT CAVOK 12/07 Q1019
cycle: 0

Station Type Date Time Source
SCSE TAF 2022/06/29 00:00 UTC NOAA

TAF SCSE 282207Z 2900/2924 21004KT CAVOK TX17/2918Z TN10/2910Z
BECMG 2901/2903 13004KT
TEMPO 2909/2913 SCT010
BECMG 2916/2918 29008KT

Example: see airport list